Latest Coastal Weather Observations for Barrow Island

IDW60701

Issued at 12:03 pm WST Wednesday 18 January 2017 (issued every 10 minutes, with the page automatically refreshed every 10 minutes)

About coastal observations | Map of coastal stations | Coastal observations for WA | Marine services | Other Formats
Station Details ID: 005094 Name: BARROW ISLAND AIRPORT Lat: -20.87 Lon: 115.41 Height: 6.4 m
Data from the previous 72 hours. | See also: Recent months at Barrow Island
Date/Time
WST
Temp
°C
Wind Pressure Rain since
9am
mm
Weather Cloud Vis
km
Sea
Height
m
Swell
Dir  Spd
kts
Gust
kts
hPa Trend Height
m
Period
s
Dir
18/12:00pm 29.0 WSW 16 20 1007.1 - 0.0 - - - - - - -
18/11:30am 28.5 WSW 17 24 1007.3 - 0.0 - - - - - - -
18/11:00am 27.9 WSW 18 23 1007.7 - 0.0 - - - - - - -
18/10:30am 28.1 WSW 18 22 1008.0 - 0.0 - - - - - - -
18/10:00am 27.5 SW 19 23 1008.0 - 0.0 - - - - - - -
18/09:30am 27.7 WSW 19 22 1008.0 - 0.0 - - - - - - -
18/09:00am 27.1 SW 18 24 1007.7 - 0.0 - - - - - - -
18/08:30am 27.0 SW 17 21 1007.6 - 0.0 - - - - - - -
18/08:00am 26.5 SW 16 21 1007.6 - 0.0 - - - - - - -
18/07:30am 25.9 SW 16 19 1007.6 - 0.0 - - - - - - -
18/07:00am 25.8 SW 17 20 1007.5 - 0.0 - - - - - - -
18/06:30am 25.3 WSW 15 18 1007.1 - 0.0 - - - - - - -
18/06:00am 25.2 WSW 15 17 1006.9 - 0.0 - - - - - - -
18/05:30am 25.4 WSW 14 18 1006.7 - 0.0 - - - - - - -
18/05:00am 25.7 WSW 14 17 1006.5 - 0.0 - - - - - - -
18/04:30am 25.8 WSW 14 18 1006.4 - 0.0 - - - - - - -
18/04:00am 26.2 WSW 14 17 1006.4 - 0.0 - - - - - - -
18/03:30am 25.9 WSW 12 16 1006.2 - 0.0 - - - - - - -
18/03:00am 25.9 WSW 12 15 1006.1 - 0.0 - - - - - - -
18/02:30am 26.0 WSW 11 14 1006.1 - 0.0 - - - - - - -
18/02:00am 26.1 WSW 12 15 1006.3 - 0.0 - - - - - - -
18/01:30am 25.9 W 12 15 1006.6 - 0.0 - - - - - - -
18/01:00am 25.9 W 12 15 1006.7 - 0.0 - - - - - - -
18/12:30am 25.9 W 13 16 1006.9 - 0.0 - - - - - - -
18/12:00am 25.9 W 14 17 1007.0 - 0.0 - - - - - - -
 
Date/Time
WST
Temp
°C
Wind Pressure Rain since
9am
mm
Weather Cloud Vis
km
Sea
Height
m
Swell
Dir  Spd
kts
Gust
kts
hPa Trend Height
m
Period
s
Dir
17/11:30pm 25.9 W 13 16 1007.4 - 0.0 - - - - - - -
17/11:00pm 26.0 W 12 16 1007.6 - 0.0 - - - - - - -
17/10:30pm 26.2 W 13 16 1007.6 - 0.0 - - - - - - -
17/10:00pm 26.3 W 13 17 1007.5 - 0.0 - - - - - - -
17/09:30pm 26.4 W 13 16 1007.3 - 0.0 - - - - - - -
17/09:00pm 26.4 W 14 17 1007.0 - 0.0 - - - - - - -
17/08:30pm 26.6 W 13 17 1006.7 - 0.0 - - - - - - -
17/08:00pm 26.7 W 14 17 1006.4 - 0.0 - - - - - - -
17/07:30pm 26.7 W 14 18 1005.8 - 0.0 - - - - - - -
17/07:00pm 26.8 W 14 18 1005.4 - 0.0 - - - - - - -
17/06:30pm 27.6 W 13 17 1005.2 - 0.0 - - - - - - -
17/06:00pm 28.1 W 14 18 1005.0 - 0.0 - - - - - - -
17/05:30pm 29.3 WNW 13 17 1004.7 - 0.0 - - - - - - -
17/05:00pm 30.3 W 13 16 1004.5 - 0.0 - - - - - - -
17/04:30pm 30.4 W 15 19 1004.4 - 0.0 - - - - - - -
17/04:00pm 30.3 W 15 19 1004.4 - 0.0 - - - - - - -
17/03:30pm 29.8 WSW 15 19 1004.7 - 0.0 - - - - - - -
17/03:00pm 29.9 WSW 15 20 1004.9 - 0.0 - - - - - - -
17/02:30pm 30.0 WSW 15 18 1005.1 - 0.0 - - - - - - -
17/02:00pm 30.4 WSW 14 20 1005.3 - 0.0 - - - - - - -
17/01:30pm 30.1 WSW 14 19 1005.5 - 0.0 - - - - - - -
17/01:00pm 30.7 WSW 13 18 1005.6 - 0.0 - - - - - - -
17/12:30pm 31.6 WSW 12 17 1005.8 - 0.0 - - - - - - -
17/12:00pm 30.2 WSW 13 17 1005.9 - 0.0 - - - - - - -
17/11:30am 30.8 WSW 13 17 1006.1 - 0.0 - - - - - - -
17/11:00am 29.8 WSW 13 17 1006.3 - 0.0 - - - - - - -
17/10:30am 29.6 WSW 12 16 1006.5 - 0.0 - - - - - - -
17/10:00am 29.1 WSW 11 17 1006.7 - 0.0 - - - - - - -
17/09:30am 29.0 W 11 14 1006.6 - 0.0 - - - - - - -
17/09:00am 29.3 WSW 10 13 1006.6 - 0.0 - - - - - - -
17/08:30am 28.5 WSW 10 13 1006.6 - 0.0 - - - - - - -
17/08:00am 28.0 WSW 8 11 1006.5 - 0.0 - - - - - - -
17/07:30am 27.7 WSW 10 12 1006.6 - 0.0 - - - - - - -
17/07:00am 27.1 WSW 9 11 1006.7 - 0.0 - - - - - - -
17/06:30am 26.3 W 8 10 1006.6 - 0.0 - - - - - - -
17/06:00am 25.9 W 9 11 1006.0 - 0.0 - - - - - - -
17/05:30am 26.1 W 8 10 1005.7 - 0.0 - - - - - - -
17/05:00am 26.2 WSW 8 9 1005.4 - 0.0 - - - - - - -
17/04:30am 26.4 WSW 9 11 1005.3 - 0.0 - - - - - - -
17/04:00am 26.4 WSW 7 9 1005.1 - 0.0 - - - - - - -
17/03:30am 25.7 W 5 6 1005.0 - 0.0 - - - - - - -
17/03:00am 26.1 WSW 6 7 1004.9 - 0.0 - - - - - - -
17/02:30am 25.7 WNW 5 6 1005.2 - 0.0 - - - - - - -
17/02:00am 26.1 WNW 6 8 1005.1 - 0.0 - - - - - - -
17/01:30am 26.1 W 5 6 1005.4 - 0.0 - - - - - - -
17/01:00am 26.3 WSW 7 10 1005.4 - 0.0 - - - - - - -
17/12:30am 26.6 WSW 8 9 1005.8 - 0.0 - - - - - - -
17/12:00am 26.4 W 7 9 1006.2 - 0.0 - - - - - - -
 
Date/Time
WST
Temp
°C
Wind Pressure Rain since
9am
mm
Weather Cloud Vis
km
Sea
Height
m
Swell
Dir  Spd
kts
Gust
kts
hPa Trend Height
m
Period
s
Dir
16/11:30pm 26.6 WSW 9 11 1006.5 - 0.0 - - - - - - -
16/11:00pm 26.6 W 9 10 1007.0 - 0.0 - - - - - - -
16/10:30pm 26.4 W 9 12 1007.0 - 0.0 - - - - - - -
16/10:00pm 26.1 W 9 10 1006.9 - 0.0 - - - - - - -
16/09:30pm 26.0 W 9 11 1006.6 - 0.0 - - - - - - -
16/09:00pm 26.1 W 8 10 1006.3 - 0.0 - - - - - - -
16/08:30pm 26.2 W 12 15 1005.7 - 0.0 - - - - - - -
16/08:00pm 26.4 WNW 13 16 1005.3 - 0.0 - - - - - - -
16/07:30pm 26.6 WNW 13 16 1005.0 - 0.0 - - - - - - -
16/07:00pm 27.0 W 14 17 1004.6 - 0.0 - - - - - - -
16/06:30pm 27.8 WNW 13 16 1004.6 - 0.0 - - - - - - -
16/06:00pm 28.5 WNW 15 20 1004.3 - 0.0 - - - - - - -
16/05:30pm 29.2 NW 14 19 1004.4 - 0.0 - - - - - - -
16/05:00pm 29.9 WNW 14 19 1004.4 - 0.0 - - - - - - -
16/04:30pm 30.4 NW 14 18 1004.5 - 0.0 - - - - - - -
16/04:00pm 30.8 NNW 12 18 1004.6 - 0.0 - - - - - - -
16/03:30pm 30.3 NNE 5 13 1004.8 - 0.0 - - - - - - -
16/03:00pm 29.7 NNE 7 10 1004.9 - 0.0 - - - - - - -
16/02:30pm 29.4 ESE 5 8 1005.2 - 0.0 - - - - - - -
16/02:00pm 29.2 S 9 12 1005.4 - 0.0 - - - - - - -
16/01:30pm 30.7 SSE 8 11 1005.7 - 0.0 - - - - - - -
16/01:00pm 30.5 S 9 12 1005.6 - 0.0 - - - - - - -
16/12:30pm 30.8 S 8 10 1005.6 - 0.0 - - - - - - -
16/12:00pm 30.3 SSE 7 9 1005.9 - 0.0 - - - - - - -
16/11:30am 30.6 SSE 9 11 1006.0 - 0.0 - - - - - - -
16/11:00am 29.9 SW 9 12 1006.3 - 0.0 - - - - - - -
16/10:30am 29.6 SW 6 9 1006.5 - 0.0 - - - - - - -
16/10:00am 29.2 WSW 8 12 1006.5 - 0.0 - - - - - - -
16/09:30am 28.7 WSW 9 13 1006.7 - 0.0 - - - - - - -
16/09:00am 28.3 W 8 12 1006.8 - 0.0 - - - - - - -
16/08:30am 27.5 WSW 7 9 1006.9 - 0.0 - - - - - - -
16/08:00am 27.4 WSW 6 8 1006.9 - 0.0 - - - - - - -
16/07:30am 27.0 W 7 9 1006.9 - 0.0 - - - - - - -
16/07:00am 27.0 WNW 5 8 1006.7 - 0.0 - - - - - - -
16/06:30am 26.7 W 6 8 1006.4 - 0.0 - - - - - - -
16/06:00am 26.4 W 6 8 1006.0 - 0.0 - - - - - - -
16/05:30am 26.3 W 7 9 1005.7 - 0.0 - - - - - - -
16/05:00am 26.3 W 8 9 1005.5 - 0.0 - - - - - - -
16/04:30am 26.4 W 7 8 1005.2 - 0.0 - - - - - - -
16/04:00am 26.5 W 7 8 1005.1 - 0.0 - - - - - - -
16/03:30am 26.5 W 7 9 1005.1 - 0.0 - - - - - - -
16/03:00am 26.6 W 7 8 1005.3 - 0.0 - - - - - - -
16/02:30am 26.6 W 8 9 1005.4 - 0.0 - - - - - - -
16/02:00am 26.8 W 7 9 1005.5 - 0.0 - - - - - - -
16/01:30am 26.8 W 8 9 1005.7 - 0.0 - - - - - - -
16/01:00am 26.9 W 7 9 1006.0 - 0.0 - - - - - - -
16/12:30am 27.0 W 7 10 1006.4 - 0.0 - - - - - - -
16/12:00am 27.0 W 8 10 1006.7 - 0.0 - - - - - - -
 
Date/Time
WST
Temp
°C
Wind Pressure Rain since
9am
mm
Weather Cloud Vis
km
Sea
Height
m
Swell
Dir  Spd
kts
Gust
kts
hPa Trend Height
m
Period
s
Dir
15/11:30pm 27.1 W 8 10 1006.7 - 0.0 - - - - - - -
15/11:00pm 27.2 WNW 9 11 1006.8 - 0.0 - - - - - - -
15/10:30pm 27.3 WNW 7 9 1006.8 - 0.0 - - - - - - -
15/10:00pm 27.4 WNW 9 11 1006.7 - 0.0 - - - - - - -
15/09:30pm 27.4 NW 9 11 1006.6 - 0.0 - - - - - - -
15/09:00pm 27.5 NW 9 12 1006.4 - 0.0 - - - - - - -
15/08:30pm 27.5 NW 9 12 1006.3 - 0.0 - - - - - - -
15/08:00pm 27.6 NNW 9 12 1005.9 - 0.0 - - - - - - -
15/07:30pm 27.7 NNW 10 12 1005.6 - 0.0 - - - - - - -
15/07:00pm 27.9 NNW 11 13 1005.2 - 0.0 - - - - - - -
15/06:30pm 28.4 NW 10 13 1004.8 - 0.0 - - - - - - -
15/06:00pm 28.6 NW 12 16 1004.4 - 0.0 - - - - - - -
15/05:30pm 29.2 NNW 13 16 1004.3 - 0.0 - - - - - - -
15/05:00pm 29.6 NNW 12 15 1004.2 - 0.0 - - - - - - -
15/04:30pm 30.7 NNW 11 16 1004.3 - 0.0 - - - - - - -
15/04:00pm 31.3 NNW 11 16 1004.3 - 0.0 - - - - - - -
15/03:30pm 31.5 NNW 13 17 1004.5 - 0.0 - - - - - - -
15/03:00pm 31.4 NNW 12 17 1004.6 - 0.0 - - - - - - -
15/02:30pm 29.2 NE 19 22 1004.7 - 0.0 - - - - - - -
15/02:00pm 30.1 NE 15 18 1004.8 - 0.0 - - - - - - -
15/01:30pm 30.1 NE 12 13 1005.1 - 0.0 - - - - - - -
15/01:00pm 29.6 NE 11 13 1005.3 - 0.0 - - - - - - -
15/12:30pm 30.3 NE 11 12 1005.4 - 0.0 - - - - - - -

Other Formats:

Comma delimited format used in spreadsheet applications
http://www.bom.gov.au/fwo/IDW60701/IDW60701.95304.axf

JavaScript Object Notation format (JSON) in row-major order
http://www.bom.gov.au/fwo/IDW60701/IDW60701.95304.json